sensor_id;sensor_type;location;lat;lon;timestamp;pressure;altitude;pressure_sealevel;temperature;humidity
21290;BME280;10804;48.988;2.408;2023-12-07T00:01:06;101226.38;;;8.77;66.02
21290;BME280;10804;48.988;2.408;2023-12-07T00:03:34;101220.31;;;8.76;65.63
21290;BME280;10804;48.988;2.408;2023-12-07T00:06:01;101228.97;;;8.77;66.48
21290;BME280;10804;48.988;2.408;2023-12-07T00:08:30;101227.25;;;8.76;66.03
21290;BME280;10804;48.988;2.408;2023-12-07T00:10:57;101234.22;;;8.75;66.25
21290;BME280;10804;48.988;2.408;2023-12-07T00:13:25;101238.53;;;8.76;66.19
21290;BME280;10804;48.988;2.408;2023-12-07T00:15:52;101220.34;;;8.75;66.27
21290;BME280;10804;48.988;2.408;2023-12-07T00:18:19;101216.00;;;8.75;65.77
21290;BME280;10804;48.988;2.408;2023-12-07T00:20:47;101210.81;;;8.74;66.10
21290;BME280;10804;48.988;2.408;2023-12-07T00:23:14;101206.50;;;8.73;66.44
21290;BME280;10804;48.988;2.408;2023-12-07T00:25:43;101201.31;;;8.71;65.98
21290;BME280;10804;48.988;2.408;2023-12-07T00:28:11;101197.84;;;8.71;65.91
21290;BME280;10804;48.988;2.408;2023-12-07T00:30:40;101186.56;;;8.72;65.89
21290;BME280;10804;48.988;2.408;2023-12-07T00:33:08;101192.66;;;8.71;65.88
21290;BME280;10804;48.988;2.408;2023-12-07T00:35:36;101192.66;;;8.71;65.90
21290;BME280;10804;48.988;2.408;2023-12-07T00:38:03;101184.00;;;8.69;66.22
21290;BME280;10804;48.988;2.408;2023-12-07T00:40:32;101180.50;;;8.70;66.14
21290;BME280;10804;48.988;2.408;2023-12-07T00:43:03;101177.06;;;8.68;65.83
21290;BME280;10804;48.988;2.408;2023-12-07T00:45:30;101189.19;;;8.69;65.79
21290;BME280;10804;48.988;2.408;2023-12-07T00:47:57;101187.47;;;8.68;65.95
21290;BME280;10804;48.988;2.408;2023-12-07T00:50:25;101192.66;;;8.68;66.27
21290;BME280;10804;48.988;2.408;2023-12-07T00:52:52;101185.75;;;8.67;65.95
21290;BME280;10804;48.988;2.408;2023-12-07T00:55:19;101190.09;;;8.66;66.34
21290;BME280;10804;48.988;2.408;2023-12-07T00:57:47;101199.63;;;8.66;66.22
21290;BME280;10804;48.988;2.408;2023-12-07T01:00:16;101192.72;;;8.65;66.00
21290;BME280;10804;48.988;2.408;2023-12-07T01:02:43;101187.50;;;8.65;66.08
21290;BME280;10804;48.988;2.408;2023-12-07T01:05:11;101184.03;;;8.64;65.99
21290;BME280;10804;48.988;2.408;2023-12-07T01:07:38;101177.22;;;8.56;66.12
21290;BME280;10804;48.988;2.408;2023-12-07T01:10:06;101201.41;;;8.61;66.41
21290;BME280;10804;48.988;2.408;2023-12-07T01:12:35;101199.69;;;8.63;65.96
21290;BME280;10804;48.988;2.408;2023-12-07T01:15:03;101180.59;;;8.61;66.09
21290;BME280;10804;48.988;2.408;2023-12-07T01:17:32;101187.56;;;8.60;66.32
21290;BME280;10804;48.988;2.408;2023-12-07T01:19:59;101186.69;;;8.60;66.07
21290;BME280;10804;48.988;2.408;2023-12-07T01:22:26;101197.97;;;8.60;66.22
21290;BME280;10804;48.988;2.408;2023-12-07T01:24:54;101210.09;;;8.60;66.21
21290;BME280;10804;48.988;2.408;2023-12-07T01:27:21;101204.88;;;8.60;66.00
21290;BME280;10804;48.988;2.408;2023-12-07T01:29:48;101198.84;;;8.58;66.03
21290;BME280;10804;48.988;2.408;2023-12-07T01:32:16;101200.56;;;8.57;66.11
21290;BME280;10804;48.988;2.408;2023-12-07T01:34:45;101188.47;;;8.56;66.56
21290;BME280;10804;48.988;2.408;2023-12-07T01:37:13;101181.53;;;8.57;66.75
21290;BME280;10804;48.988;2.408;2023-12-07T01:39:41;101187.63;;;8.56;66.09
21290;BME280;10804;48.988;2.408;2023-12-07T01:42:09;101184.16;;;8.54;65.87
21290;BME280;10804;48.988;2.408;2023-12-07T01:44:38;101181.53;;;8.55;65.99
21290;BME280;10804;48.988;2.408;2023-12-07T01:47:06;101179.81;;;8.54;65.71
21290;BME280;10804;48.988;2.408;2023-12-07T01:49:36;101183.31;;;8.55;66.19
21290;BME280;10804;48.988;2.408;2023-12-07T01:52:06;101177.22;;;8.54;66.06
21290;BME280;10804;48.988;2.408;2023-12-07T01:54:34;101179.84;;;8.53;65.84
21290;BME280;10804;48.988;2.408;2023-12-07T01:57:02;101179.84;;;8.53;65.96
21290;BME280;10804;48.988;2.408;2023-12-07T01:59:30;101177.28;;;8.51;66.71
21290;BME280;10804;48.988;2.408;2023-12-07T02:01:57;101179.88;;;8.51;65.74
21290;BME280;10804;48.988;2.408;2023-12-07T02:04:24;101178.09;;;8.52;66.23
21290;BME280;10804;48.988;2.408;2023-12-07T02:06:54;101166.88;;;8.50;65.72
21290;BME280;10804;48.988;2.408;2023-12-07T02:09:25;101176.41;;;8.51;66.27
21290;BME280;10804;48.988;2.408;2023-12-07T02:11:53;101171.19;;;8.49;65.92
21290;BME280;10804;48.988;2.408;2023-12-07T02:14:20;101165.13;;;8.50;65.99
21290;BME280;10804;48.988;2.408;2023-12-07T02:16:51;101162.56;;;8.47;65.69
21290;BME280;10804;48.988;2.408;2023-12-07T02:19:41;101169.47;;;8.48;66.22
21290;BME280;10804;48.988;2.408;2023-12-07T02:22:17;101160.84;;;8.48;66.23
21290;BME280;10804;48.988;2.408;2023-12-07T02:24:50;101147.84;;;8.48;65.94
21290;BME280;10804;48.988;2.408;2023-12-07T02:27:34;101145.25;;;8.46;66.12
21290;BME280;10804;48.988;2.408;2023-12-07T02:30:02;101149.56;;;8.47;66.05
21290;BME280;10804;48.988;2.408;2023-12-07T02:32:30;101137.47;;;8.45;66.40
21290;BME280;10804;48.988;2.408;2023-12-07T02:34:57;101141.78;;;8.46;66.55
21290;BME280;10804;48.988;2.408;2023-12-07T02:37:27;101143.53;;;8.45;66.20
21290;BME280;10804;48.988;2.408;2023-12-07T02:39:56;101137.50;;;8.43;66.16
21290;BME280;10804;48.988;2.408;2023-12-07T02:42:24;101134.91;;;8.40;66.18
21290;BME280;10804;48.988;2.408;2023-12-07T02:44:54;101137.50;;;8.43;65.73
21290;BME280;10804;48.988;2.408;2023-12-07T02:47:21;101126.25;;;8.41;66.38
21290;BME280;10804;48.988;2.408;2023-12-07T02:49:49;101128.84;;;8.41;66.01
21290;BME280;10804;48.988;2.408;2023-12-07T02:52:16;101140.09;;;8.42;66.37
21290;BME280;10804;48.988;2.408;2023-12-07T02:54:44;101144.47;;;8.40;66.21
21290;BME280;10804;48.988;2.408;2023-12-07T02:57:11;101150.50;;;8.40;66.22
21290;BME280;10804;48.988;2.408;2023-12-07T02:59:40;101154.88;;;8.40;66.60
21290;BME280;10804;48.988;2.408;2023-12-07T03:02:09;101165.25;;;8.40;66.53
21290;BME280;10804;48.988;2.408;2023-12-07T03:04:36;101156.59;;;8.38;66.09
21290;BME280;10804;48.988;2.408;2023-12-07T03:07:04;101166.16;;;8.36;66.46
21290;BME280;10804;48.988;2.408;2023-12-07T03:09:31;101167.00;;;8.38;66.72
21290;BME280;10804;48.988;2.408;2023-12-07T03:11:58;101151.44;;;8.36;66.15
21290;BME280;10804;48.988;2.408;2023-12-07T03:14:26;101139.28;;;8.37;66.54
21290;BME280;10804;48.988;2.408;2023-12-07T03:16:53;101117.66;;;8.35;66.36
21290;BME280;10804;48.988;2.408;2023-12-07T03:19:22;101086.47;;;8.35;66.37
21290;BME280;10804;48.988;2.408;2023-12-07T03:21:49;101073.47;;;8.35;66.31
21290;BME280;10804;48.988;2.408;2023-12-07T03:24:17;101058.78;;;8.34;65.95
21290;BME280;10804;48.988;2.408;2023-12-07T03:26:44;101056.19;;;8.34;66.57
21290;BME280;10804;48.988;2.408;2023-12-07T03:29:12;101052.72;;;8.33;66.38
21290;BME280;10804;48.988;2.408;2023-12-07T03:31:39;101051.88;;;8.33;66.16
21290;BME280;10804;48.988;2.408;2023-12-07T03:34:07;101070.06;;;8.33;66.45
21290;BME280;10804;48.988;2.408;2023-12-07T03:36:35;101081.28;;;8.33;65.84
21290;BME280;10804;48.988;2.408;2023-12-07T03:39:03;101090.84;;;8.33;66.02
21290;BME280;10804;48.988;2.408;2023-12-07T03:41:30;101091.72;;;8.32;66.58
21290;BME280;10804;48.988;2.408;2023-12-07T03:43:58;101096.03;;;8.30;66.17
21290;BME280;10804;48.988;2.408;2023-12-07T03:46:25;101092.56;;;8.31;66.45
21290;BME280;10804;48.988;2.408;2023-12-07T03:48:52;101064.03;;;8.28;65.90
21290;BME280;10804;48.988;2.408;2023-12-07T03:51:20;101070.06;;;8.30;66.15
21290;BME280;10804;48.988;2.408;2023-12-07T03:53:49;101077.91;;;8.28;66.66
21290;BME280;10804;48.988;2.408;2023-12-07T03:56:22;101077.91;;;8.28;66.59
21290;BME280;10804;48.988;2.408;2023-12-07T03:58:50;101069.25;;;8.26;66.21
21290;BME280;10804;48.988;2.408;2023-12-07T04:01:17;101071.00;;;8.26;66.12
21290;BME280;10804;48.988;2.408;2023-12-07T04:03:44;101072.72;;;8.27;66.46
21290;BME280;10804;48.988;2.408;2023-12-07T04:06:12;101064.03;;;8.26;66.54
21290;BME280;10804;48.988;2.408;2023-12-07T04:08:39;101054.53;;;8.24;66.63
21290;BME280;10804;48.988;2.408;2023-12-07T04:11:08;101052.81;;;8.24;66.88
21290;BME280;10804;48.988;2.408;2023-12-07T04:13:36;101057.13;;;8.24;66.52
21290;BME280;10804;48.988;2.408;2023-12-07T04:16:04;101067.53;;;8.24;66.56
21290;BME280;10804;48.988;2.408;2023-12-07T04:18:31;101072.72;;;8.24;66.13
21290;BME280;10804;48.988;2.408;2023-12-07T04:20:59;101071.00;;;8.23;66.40
21290;BME280;10804;48.988;2.408;2023-12-07T04:23:26;101084.88;;;8.22;66.98
21290;BME280;10804;48.988;2.408;2023-12-07T04:25:54;101096.16;;;8.21;66.45
21290;BME280;10804;48.988;2.408;2023-12-07T04:28:22;101106.53;;;8.21;66.26
21290;BME280;10804;48.988;2.408;2023-12-07T04:30:50;101105.69;;;8.20;66.03
21290;BME280;10804;48.988;2.408;2023-12-07T04:33:17;101101.34;;;8.21;66.27
21290;BME280;10804;48.988;2.408;2023-12-07T04:35:44;101095.31;;;8.19;66.63
21290;BME280;10804;48.988;2.408;2023-12-07T04:38:12;101094.44;;;8.20;66.43
21290;BME280;10804;48.988;2.408;2023-12-07T04:40:39;101087.50;;;8.20;66.09
21290;BME280;10804;48.988;2.408;2023-12-07T04:43:07;101077.97;;;8.19;66.37
21290;BME280;10804;48.988;2.408;2023-12-07T04:45:36;101068.44;;;8.18;66.52
21290;BME280;10804;48.988;2.408;2023-12-07T04:48:04;101074.50;;;8.17;66.38
21290;BME280;10804;48.988;2.408;2023-12-07T04:50:32;101065.00;;;8.18;66.45
21290;BME280;10804;48.988;2.408;2023-12-07T04:52:59;101052.88;;;8.17;66.41
21290;BME280;10804;48.988;2.408;2023-12-07T04:55:27;101056.31;;;8.16;66.50
21290;BME280;10804;48.988;2.408;2023-12-07T04:57:54;101044.22;;;8.15;66.75
21290;BME280;10804;48.988;2.408;2023-12-07T05:00:21;101054.59;;;8.15;66.80
21290;BME280;10804;48.988;2.408;2023-12-07T05:02:50;101058.97;;;8.14;66.51
21290;BME280;10804;48.988;2.408;2023-12-07T05:05:18;101060.69;;;8.15;66.79
21290;BME280;10804;48.988;2.408;2023-12-07T05:07:45;101058.09;;;8.14;66.68
21290;BME280;10804;48.988;2.408;2023-12-07T05:10:13;101043.38;;;8.13;66.51
21290;BME280;10804;48.988;2.408;2023-12-07T05:12:40;101031.28;;;8.12;66.54
21290;BME280;10804;48.988;2.408;2023-12-07T05:15:08;101022.59;;;8.13;66.60
21290;BME280;10804;48.988;2.408;2023-12-07T05:17:35;101013.09;;;8.12;66.43
21290;BME280;10804;48.988;2.408;2023-12-07T05:20:06;101009.63;;;8.11;66.54
21290;BME280;10804;48.988;2.408;2023-12-07T05:22:33;101007.91;;;8.12;66.37
21290;BME280;10804;48.988;2.408;2023-12-07T05:25:00;101006.19;;;8.11;66.45
21290;BME280;10804;48.988;2.408;2023-12-07T05:27:28;101003.59;;;8.11;66.33
21290;BME280;10804;48.988;2.408;2023-12-07T05:29:55;101000.13;;;8.09;67.05
21290;BME280;10804;48.988;2.408;2023-12-07T05:32:22;101001.84;;;8.11;66.38
21290;BME280;10804;48.988;2.408;2023-12-07T05:34:50;101018.28;;;8.12;66.59
21290;BME280;10804;48.988;2.408;2023-12-07T05:37:18;101010.50;;;8.09;66.69
21290;BME280;10804;48.988;2.408;2023-12-07T05:39:46;101016.59;;;8.08;66.41
21290;BME280;10804;48.988;2.408;2023-12-07T05:42:13;101018.34;;;8.06;66.74
21290;BME280;10804;48.988;2.408;2023-12-07T05:44:40;101015.75;;;8.07;66.87
21290;BME280;10804;48.988;2.408;2023-12-07T05:47:08;101027.00;;;8.06;66.41
21290;BME280;10804;48.988;2.408;2023-12-07T05:49:35;101024.41;;;8.06;66.56
21290;BME280;10804;48.988;2.408;2023-12-07T05:52:03;101030.50;;;8.04;66.78
21290;BME280;10804;48.988;2.408;2023-12-07T05:54:32;101029.63;;;8.06;66.65
21290;BME280;10804;48.988;2.408;2023-12-07T05:57:00;101025.31;;;8.04;66.46
21290;BME280;10804;48.988;2.408;2023-12-07T05:59:27;101010.56;;;8.06;66.40
21290;BME280;10804;48.988;2.408;2023-12-07T06:01:54;101015.75;;;8.04;67.08
21290;BME280;10804;48.988;2.408;2023-12-07T06:04:22;101015.75;;;8.06;66.83
21290;BME280;10804;48.988;2.408;2023-12-07T06:06:49;101001.94;;;8.02;67.14
21290;BME280;10804;48.988;2.408;2023-12-07T06:09:17;101002.81;;;8.03;66.46
21290;BME280;10804;48.988;2.408;2023-12-07T06:11:46;100997.63;;;8.03;67.17
21290;BME280;10804;48.988;2.408;2023-12-07T06:14:13;100990.72;;;8.02;66.79
21290;BME280;10804;48.988;2.408;2023-12-07T06:16:40;100984.66;;;8.01;66.76
21290;BME280;10804;48.988;2.408;2023-12-07T06:19:08;100983.81;;;7.99;66.41
21290;BME280;10804;48.988;2.408;2023-12-07T06:21:35;100988.13;;;7.99;66.41
21290;BME280;10804;48.988;2.408;2023-12-07T06:24:03;100995.91;;;8.00;66.37
21290;BME280;10804;48.988;2.408;2023-12-07T06:26:30;100994.16;;;8.01;66.47
21290;BME280;10804;48.988;2.408;2023-12-07T06:28:59;100993.31;;;7.99;67.04
21290;BME280;10804;48.988;2.408;2023-12-07T06:31:26;100982.09;;;7.98;66.94
21290;BME280;10804;48.988;2.408;2023-12-07T06:33:53;100992.47;;;7.98;66.55
21290;BME280;10804;48.988;2.408;2023-12-07T06:36:22;100982.94;;;7.97;66.90
21290;BME280;10804;48.988;2.408;2023-12-07T06:38:49;100973.44;;;7.98;66.80
21290;BME280;10804;48.988;2.408;2023-12-07T06:41:17;100949.22;;;7.96;66.94
21290;BME280;10804;48.988;2.408;2023-12-07T06:43:44;100964.75;;;7.97;66.76
21290;BME280;10804;48.988;2.408;2023-12-07T06:46:13;100976.91;;;7.97;66.35
21290;BME280;10804;48.988;2.408;2023-12-07T06:48:42;100979.50;;;7.97;66.44
21290;BME280;10804;48.988;2.408;2023-12-07T06:51:09;100975.19;;;7.96;67.02
21290;BME280;10804;48.988;2.408;2023-12-07T06:53:38;100974.34;;;7.94;66.40
21290;BME280;10804;48.988;2.408;2023-12-07T06:56:07;100971.75;;;7.92;67.12
21290;BME280;10804;48.988;2.408;2023-12-07T06:58:34;100955.31;;;7.92;66.75
21290;BME280;10804;48.988;2.408;2023-12-07T07:01:03;100944.94;;;7.92;67.06
21290;BME280;10804;48.988;2.408;2023-12-07T07:03:32;100943.19;;;7.92;66.46
21290;BME280;10804;48.988;2.408;2023-12-07T07:06:01;100938.00;;;7.92;66.84
21290;BME280;10804;48.988;2.408;2023-12-07T07:08:28;100943.22;;;7.91;67.09
21290;BME280;10804;48.988;2.408;2023-12-07T07:10:56;100940.66;;;7.88;67.12
21290;BME280;10804;48.988;2.408;2023-12-07T07:13:23;100947.56;;;7.89;66.88
21290;BME280;10804;48.988;2.408;2023-12-07T07:15:51;100948.41;;;7.92;66.86
21290;BME280;10804;48.988;2.408;2023-12-07T07:18:18;100941.50;;;7.88;66.72
21290;BME280;10804;48.988;2.408;2023-12-07T07:20:48;100952.75;;;7.89;66.93
21290;BME280;10804;48.988;2.408;2023-12-07T07:23:15;100957.06;;;7.91;67.13
21290;BME280;10804;48.988;2.408;2023-12-07T07:25:42;100951.00;;;7.89;67.29
21290;BME280;10804;48.988;2.408;2023-12-07T07:28:09;100965.75;;;7.90;66.59
21290;BME280;10804;48.988;2.408;2023-12-07T07:30:37;100958.78;;;7.89;67.03
21290;BME280;10804;48.988;2.408;2023-12-07T07:33:04;100964.03;;;7.88;66.99
21290;BME280;10804;48.988;2.408;2023-12-07T07:35:31;100975.25;;;7.88;66.74
21290;BME280;10804;48.988;2.408;2023-12-07T07:38:00;100971.81;;;7.88;67.24
21290;BME280;10804;48.988;2.408;2023-12-07T07:40:27;100966.63;;;7.88;66.60
21290;BME280;10804;48.988;2.408;2023-12-07T07:42:55;100967.50;;;7.87;66.91
21290;BME280;10804;48.988;2.408;2023-12-07T07:45:22;100973.53;;;7.87;66.78
21290;BME280;10804;48.988;2.408;2023-12-07T07:47:50;100970.94;;;7.89;66.88
21290;BME280;10804;48.988;2.408;2023-12-07T07:50:18;100971.81;;;7.88;66.94
21290;BME280;10804;48.988;2.408;2023-12-07T07:52:45;100964.03;;;7.88;66.43
21290;BME280;10804;48.988;2.408;2023-12-07T07:55:14;100947.56;;;7.87;66.54
21290;BME280;10804;48.988;2.408;2023-12-07T07:57:41;100953.66;;;7.86;66.50
21290;BME280;10804;48.988;2.408;2023-12-07T08:00:10;100944.09;;;7.88;66.96
21290;BME280;10804;48.988;2.408;2023-12-07T08:02:39;100936.31;;;7.88;66.93
21290;BME280;10804;48.988;2.408;2023-12-07T08:05:06;100929.41;;;7.89;67.14
21290;BME280;10804;48.988;2.408;2023-12-07T08:07:34;100936.31;;;7.88;66.88
21290;BME280;10804;48.988;2.408;2023-12-07T08:10:01;100930.28;;;7.88;66.89
21290;BME280;10804;48.988;2.408;2023-12-07T08:12:31;100928.53;;;7.88;66.58
21290;BME280;10804;48.988;2.408;2023-12-07T08:14:58;100919.91;;;7.88;67.02
21290;BME280;10804;48.988;2.408;2023-12-07T08:17:25;100919.91;;;7.88;66.46
21290;BME280;10804;48.988;2.408;2023-12-07T08:19:53;100920.72;;;7.88;66.79
21290;BME280;10804;48.988;2.408;2023-12-07T08:22:20;100909.50;;;7.88;67.20
21290;BME280;10804;48.988;2.408;2023-12-07T08:24:48;100912.94;;;7.88;66.73
21290;BME280;10804;48.988;2.408;2023-12-07T08:27:15;100906.03;;;7.89;67.09
21290;BME280;10804;48.988;2.408;2023-12-07T08:29:44;100899.13;;;7.88;67.17
21290;BME280;10804;48.988;2.408;2023-12-07T08:32:12;100897.41;;;7.87;66.73
21290;BME280;10804;48.988;2.408;2023-12-07T08:34:40;100899.13;;;7.88;66.46
21290;BME280;10804;48.988;2.408;2023-12-07T08:37:07;100883.53;;;7.88;66.43
21290;BME280;10804;48.988;2.408;2023-12-07T08:39:35;100888.75;;;7.88;66.92
21290;BME280;10804;48.988;2.408;2023-12-07T08:42:02;100889.56;;;7.88;66.29
21290;BME280;10804;48.988;2.408;2023-12-07T08:44:30;100880.06;;;7.89;66.86
21290;BME280;10804;48.988;2.408;2023-12-07T08:46:58;100885.25;;;7.89;66.96
21290;BME280;10804;48.988;2.408;2023-12-07T08:49:26;100867.94;;;7.89;67.10
21290;BME280;10804;48.988;2.408;2023-12-07T08:51:53;100884.38;;;7.91;66.91
21290;BME280;10804;48.988;2.408;2023-12-07T08:54:22;100870.50;;;7.91;67.07
21290;BME280;10804;48.988;2.408;2023-12-07T08:56:50;100876.59;;;7.90;66.67
21290;BME280;10804;48.988;2.408;2023-12-07T08:59:17;100862.78;;;7.88;66.83
21290;BME280;10804;48.988;2.408;2023-12-07T09:01:45;100867.06;;;7.90;67.12
21290;BME280;10804;48.988;2.408;2023-12-07T09:04:13;100866.16;;;7.93;67.03
21290;BME280;10804;48.988;2.408;2023-12-07T09:06:41;100862.69;;;7.94;66.54
21290;BME280;10804;48.988;2.408;2023-12-07T09:09:08;100855.75;;;7.93;66.88
21290;BME280;10804;48.988;2.408;2023-12-07T09:11:37;100845.38;;;7.93;66.83
21290;BME280;10804;48.988;2.408;2023-12-07T09:14:05;100834.09;;;7.95;66.60
21290;BME280;10804;48.988;2.408;2023-12-07T09:16:32;100839.28;;;7.95;66.99
21290;BME280;10804;48.988;2.408;2023-12-07T09:19:00;100847.06;;;7.97;66.50
21290;BME280;10804;48.988;2.408;2023-12-07T09:21:29;100845.34;;;7.96;66.94
21290;BME280;10804;48.988;2.408;2023-12-07T09:23:56;100839.28;;;7.97;66.72
21290;BME280;10804;48.988;2.408;2023-12-07T09:26:24;100831.50;;;7.97;67.08
21290;BME280;10804;48.988;2.408;2023-12-07T09:28:51;100833.19;;;7.98;66.62
21290;BME280;10804;48.988;2.408;2023-12-07T09:31:18;100821.03;;;8.00;66.84
21290;BME280;10804;48.988;2.408;2023-12-07T09:33:46;100821.03;;;8.00;66.39
21290;BME280;10804;48.988;2.408;2023-12-07T09:36:16;100809.78;;;8.01;66.30
21290;BME280;10804;48.988;2.408;2023-12-07T09:38:45;100800.25;;;8.01;66.70
21290;BME280;10804;48.988;2.408;2023-12-07T09:41:13;100805.44;;;8.03;66.27
21290;BME280;10804;48.988;2.408;2023-12-07T09:43:40;100808.00;;;8.06;66.66
21290;BME280;10804;48.988;2.408;2023-12-07T09:46:07;100801.06;;;8.06;66.30
21290;BME280;10804;48.988;2.408;2023-12-07T09:48:36;100802.78;;;8.07;66.88
21290;BME280;10804;48.988;2.408;2023-12-07T09:51:05;100802.78;;;8.07;66.56
21290;BME280;10804;48.988;2.408;2023-12-07T09:53:33;100799.28;;;8.10;66.68
21290;BME280;10804;48.988;2.408;2023-12-07T09:56:03;100794.09;;;8.10;66.63
21290;BME280;10804;48.988;2.408;2023-12-07T09:58:31;100784.53;;;8.12;66.41
21290;BME280;10804;48.988;2.408;2023-12-07T10:00:58;100774.97;;;8.12;66.45
21290;BME280;10804;48.988;2.408;2023-12-07T10:03:26;100775.84;;;8.14;66.67
21290;BME280;10804;48.988;2.408;2023-12-07T10:05:55;100764.56;;;8.15;66.25
21290;BME280;10804;48.988;2.408;2023-12-07T10:08:27;100761.97;;;8.17;66.33
21290;BME280;10804;48.988;2.408;2023-12-07T10:11:09;100749.81;;;8.19;66.36
21290;BME280;10804;48.988;2.408;2023-12-07T10:13:38;100744.63;;;8.19;66.13
21290;BME280;10804;48.988;2.408;2023-12-07T10:16:11;100733.34;;;8.20;66.58
21290;BME280;10804;48.988;2.408;2023-12-07T10:18:39;100723.78;;;8.22;66.31
21290;BME280;10804;48.988;2.408;2023-12-07T10:21:07;100728.09;;;8.23;66.51
21290;BME280;10804;48.988;2.408;2023-12-07T10:23:36;100718.56;;;8.25;66.64
21290;BME280;10804;48.988;2.408;2023-12-07T10:26:05;100722.88;;;8.26;66.29
21290;BME280;10804;48.988;2.408;2023-12-07T10:28:35;100725.47;;;8.26;66.17
21290;BME280;10804;48.988;2.408;2023-12-07T10:31:03;100719.38;;;8.28;66.56
21290;BME280;10804;48.988;2.408;2023-12-07T10:33:31;100704.63;;;8.29;66.36
21290;BME280;10804;48.988;2.408;2023-12-07T10:35:58;100708.03;;;8.31;66.26
21290;BME280;10804;48.988;2.408;2023-12-07T10:38:26;100707.19;;;8.32;66.89
21290;BME280;10804;48.988;2.408;2023-12-07T10:41:03;100711.50;;;8.33;66.39
21290;BME280;10804;48.988;2.408;2023-12-07T10:43:37;100708.00;;;8.34;65.97
21290;BME280;10804;48.988;2.408;2023-12-07T10:46:09;100707.13;;;8.35;66.57
21290;BME280;10804;48.988;2.408;2023-12-07T10:48:36;100697.63;;;8.34;66.14
21290;BME280;10804;48.988;2.408;2023-12-07T10:51:07;100703.63;;;8.36;65.91
21290;BME280;10804;48.988;2.408;2023-12-07T10:53:37;100690.66;;;8.36;66.18
21290;BME280;10804;48.988;2.408;2023-12-07T10:56:11;100689.75;;;8.37;66.76
21290;BME280;10804;48.988;2.408;2023-12-07T10:58:43;100690.56;;;8.39;66.15
21290;BME280;10804;48.988;2.408;2023-12-07T11:01:11;100681.06;;;8.39;66.31
21290;BME280;10804;48.988;2.408;2023-12-07T11:03:40;100675.00;;;8.39;66.11
21290;BME280;10804;48.988;2.408;2023-12-07T11:06:09;100666.34;;;8.40;65.76
21290;BME280;10804;48.988;2.408;2023-12-07T11:08:38;100666.34;;;8.40;65.84
21290;BME280;10804;48.988;2.408;2023-12-07T11:11:11;100661.97;;;8.40;66.28
21290;BME280;10804;48.988;2.408;2023-12-07T11:13:47;100642.06;;;8.41;66.25
21290;BME280;10804;48.988;2.408;2023-12-07T11:16:16;100639.47;;;8.41;66.25
21290;BME280;10804;48.988;2.408;2023-12-07T11:18:43;100638.56;;;8.42;66.12
21290;BME280;10804;48.988;2.408;2023-12-07T11:21:11;100633.34;;;8.43;66.04
21290;BME280;10804;48.988;2.408;2023-12-07T11:23:38;100623.81;;;8.44;66.31
21290;BME280;10804;48.988;2.408;2023-12-07T11:26:06;100629.91;;;8.43;66.10
21290;BME280;10804;48.988;2.408;2023-12-07T11:28:35;100637.69;;;8.43;65.96
21290;BME280;10804;48.988;2.408;2023-12-07T11:31:06;100619.50;;;8.43;66.01
21290;BME280;10804;48.988;2.408;2023-12-07T11:33:37;100617.72;;;8.45;65.98
21290;BME280;10804;48.988;2.408;2023-12-07T11:36:06;100608.19;;;8.45;66.57
21290;BME280;10804;48.988;2.408;2023-12-07T11:38:36;100601.28;;;8.44;65.82
21290;BME280;10804;48.988;2.408;2023-12-07T11:41:03;100600.34;;;8.47;65.84
21290;BME280;10804;48.988;2.408;2023-12-07T11:43:41;100594.31;;;8.46;66.25
21290;BME280;10804;48.988;2.408;2023-12-07T11:46:12;100583.91;;;8.48;66.63
21290;BME280;10804;48.988;2.408;2023-12-07T11:48:46;100573.50;;;8.48;66.01
21290;BME280;10804;48.988;2.408;2023-12-07T11:51:13;100575.22;;;8.49;65.98
21290;BME280;10804;48.988;2.408;2023-12-07T11:53:40;100572.63;;;8.49;65.83
21290;BME280;10804;48.988;2.408;2023-12-07T11:56:09;100576.91;;;8.50;66.16
21290;BME280;10804;48.988;2.408;2023-12-07T11:58:37;100558.72;;;8.50;65.81
21290;BME280;10804;48.988;2.408;2023-12-07T12:01:05;100550.03;;;8.51;65.65
21290;BME280;10804;48.988;2.408;2023-12-07T12:03:34;100544.81;;;8.52;65.98
21290;BME280;10804;48.988;2.408;2023-12-07T12:06:04;100545.72;;;8.51;66.55
21290;BME280;10804;48.988;2.408;2023-12-07T12:08:32;100541.34;;;8.52;66.25
21290;BME280;10804;48.988;2.408;2023-12-07T12:10:59;100534.38;;;8.54;66.41
21290;BME280;10804;48.988;2.408;2023-12-07T12:13:27;100534.38;;;8.54;66.23
21290;BME280;10804;48.988;2.408;2023-12-07T12:15:55;100526.56;;;8.54;65.89
21290;BME280;10804;48.988;2.408;2023-12-07T12:18:23;100523.97;;;8.54;66.21
21290;BME280;10804;48.988;2.408;2023-12-07T12:20:53;100519.63;;;8.56;65.69
21290;BME280;10804;48.988;2.408;2023-12-07T12:23:21;100510.97;;;8.55;65.71
21290;BME280;10804;48.988;2.408;2023-12-07T12:25:49;100524.81;;;8.56;66.18
21290;BME280;10804;48.988;2.408;2023-12-07T12:28:17;100509.22;;;8.56;66.14
21290;BME280;10804;48.988;2.408;2023-12-07T12:30:48;100507.47;;;8.56;65.89
21290;BME280;10804;48.988;2.408;2023-12-07T12:33:16;100502.25;;;8.58;65.57
21290;BME280;10804;48.988;2.408;2023-12-07T12:35:43;100504.84;;;8.58;66.00
21290;BME280;10804;48.988;2.408;2023-12-07T12:38:13;100490.16;;;8.57;66.02
21290;BME280;10804;48.988;2.408;2023-12-07T12:40:40;100478.84;;;8.58;66.06
21290;BME280;10804;48.988;2.408;2023-12-07T12:43:08;100479.69;;;8.58;66.04
21290;BME280;10804;48.988;2.408;2023-12-07T12:45:37;100472.78;;;8.59;65.76
21290;BME280;10804;48.988;2.408;2023-12-07T12:48:05;100454.66;;;8.56;65.86
21290;BME280;10804;48.988;2.408;2023-12-07T12:50:35;100455.44;;;8.59;65.62
21290;BME280;10804;48.988;2.408;2023-12-07T12:53:05;100454.56;;;8.59;66.36
21290;BME280;10804;48.988;2.408;2023-12-07T12:55:38;100457.19;;;8.59;65.99
21290;BME280;10804;48.988;2.408;2023-12-07T12:58:06;100451.97;;;8.59;66.44
21290;BME280;10804;48.988;2.408;2023-12-07T13:00:35;100446.78;;;8.59;65.80
21290;BME280;10804;48.988;2.408;2023-12-07T13:03:06;100449.38;;;8.59;65.91
21290;BME280;10804;48.988;2.408;2023-12-07T13:05:33;100432.06;;;8.58;66.24